SCC: Birmingham: GS qualifying times

Pos Num Class Team Time Gap To 1st Speed --- --- ----- ------------------------------ ---------- ------- ------- ------- 1. 9 GS Spirit of Daytona Racing 1:37.711 84.740 2. 42...

Pos Num Class Team                                 Time     Gap  To 1st   Speed
--- --- ----- ------------------------------ ---------- ------- ------- -------
 1.   9 GS    Spirit of Daytona Racing         1:37.711                  84.740
 2.  42 GS    TRG                              1:37.915   0.204   0.204  84.563
 3.  55 GS    Hyper Sport                      1:38.321   0.406   0.610  84.214
 4.  99 GS    Automatic Racing                 1:38.688   0.367   0.977  83.901
 5.  79 GS    Kinetic Motorsports              1:38.917   0.229   1.206  83.707
 6.  41 GS    TRG                              1:39.140   0.223   1.429  83.518
 7.  97 GS    Turner Motorsport                1:39.150   0.010   1.439  83.510
 8.  28 GS    Fall-Line Motorsports            1:39.243   0.093   1.532  83.432
 9.  09 GS    Automatic Racing                 1:39.392   0.149   1.681  83.307
10.  54 GS    Hyper Sport                      1:39.555   0.163   1.844  83.170
11.  39 GS    TRG                              1:39.597   0.042   1.886  83.135
12.  38 GS    BGB Motorsports                  1:39.633   0.036   1.922  83.105
13.  83 GS    BGB Motorsports                  1:39.805   0.172   2.094  82.962
14.   5 GS    Blackforest Motorsports          1:39.838   0.033   2.127  82.934
15. 154 GS    Jim Click Racing                 1:39.862   0.024   2.151  82.914
16.  96 GS    Turner Motorsport                1:39.953   0.091   2.242  82.839
17.  90 GS    Automatic Racing                 1:40.043   0.090   2.332  82.764
18.  25 GS    Fiorano/C-MAX Racing             1:40.128   0.085   2.417  82.694
19.   4 GS    Blackforest Motorsports          1:40.141   0.013   2.430  82.683
20.  17 GS    Team Centurion                   1:40.260   0.119   2.549  82.585
21.  87 GS    Marcus Motorsports               1:40.296   0.036   2.585  82.556
22.  46 GS    Fall-Line Motorsports            1:40.328   0.032   2.617  82.529
23. 156 GS    Hyper Sport                      1:40.352   0.024   2.641  82.510
24.  37 GS    JBS Racing                       1:40.385   0.033   2.674  82.482
25.  91 GS    Automatic Racing                 1:40.391   0.006   2.680  82.478
26.  49 GS    Marcus Motorsports               1:40.523   0.132   2.812  82.369
27.  59 GS    Rehagen Racing                   1:40.565   0.042   2.854  82.335
28.  07 GS    Cardiosport Racing               1:40.684   0.119   2.973  82.237
29.  88 GS    Ranger Sports Racing             1:40.829   0.145   3.118  82.119
30. 150 GS    Jim Click Racing                 1:41.011   0.182   3.300  81.971
31. 137 GS    JBS Motorsports                  1:41.448   0.437   3.737  81.618
32.  40 GS    TRG                              1:41.501   0.053   3.790  81.576
33.  52 GS    Rehagen Racing                   1:41.516   0.015   3.805  81.563
34.   3 GS    Blackforest Motorsports          1:41.732   0.216   4.021  81.390
35.   2 GS    Blackforest Motorsports          1:42.317   0.585   4.606  80.925
36.  11 GS    Southwest Racers Group           1:43.156   0.839   5.445  80.267
37.  10 GS    Spirit of Daytona Racing         1:44.185   1.029   6.474  79.474
38.  89 GS    Ranger Sports Racing             1:44.432   0.247   6.721  79.286
39.  26 GS    Fiorano/C-MAX Racing              No Time

Be part of something big

Write a comment
Show comments
About this article
Series Grand-Am
Drivers Jim Click
Teams Kinetic Motorsports , Rehagen Racing , Turner Motorsport , Automatic Racing , Fall-Line Motorsports